Paradise, MI

9:40 AM EDT on October 02, 2014 (GMT -0400)
RAWS RACO MI US | Change Station
CLOSE
Current Station
Personal Weather Station
Location: Kinross, MI
Elevation: 750 ft
Nearby Weather Stations

Elev 750 ft 46.36 °N, 84.80 °W | Updated 36 minutes ago

Overcast
Overcast
55 °F
Feels Like 55 °F
N
7
Wind Variable Wind from SSE
Gusts 12.0 mph

Today
High -- | Low -- °F
--% Chance of Precip.
Yesterday
High -- | Low -- °F
Precip. -- in
7:40 AM 7:18 PM
First Quarter, 59% visible
Pressure 30.07 in
Visibility 4.0 miles
Clouds Overcast 300 ft
Dew Point 54 °F
Humidity 97%
Rainfall 0.53 in
Snow Depth Not available.
UV 1 out of 12
Pollen 1.60 out of 12
PM2.5 Good
Flu Activity Not available.
METAR KERY 011414Z AUTO 18009KT 4SM BR OVC003 11/11 A3007 RMK AO2 T01120110

More Conditions Fewer Conditions

Pressure 30.07 in
Visibility 4.0 miles
Clouds Overcast 300 ft
Dew Point 54 °F
Humidity 97%
Rainfall 0.53 in
Snow Depth Not available.
UV 1 out of 12
Pollen 1.60 out of 12
PM2.5 Good
Flu Activity Not available.
METAR KERY 011414Z AUTO 18009KT 4SM BR OVC003 11/11 A3007 RMK AO2 T01120110

More Conditions Fewer Conditions

Nowcast | as of 9:00 am EDT on October 2, 2014

At 10 am...rain showers and slight chance of thunderstorms. Temperature 57. Southeast winds 8 mph. At 12 PM...rain showers. Temperature 58. Southeast winds 9 mph. At 2 PM...cloudy. Chance of rain showers. Temperature 59. Southeast winds 9 mph. At 4 PM...cloudy. Chance of rain showers. Temperature 60. Southeast winds 10 mph.

×

10-Day Weather Forecast

Almanac

Astronomy

Oct. 02, 2014 Rise Set
Actual Time 7:40 AM EDT 7:18 PM EDT
Civil Twilight 7:10 AM EDT 7:48 PM EDT
Nautical Twilight 6:35 AM EDT 8:23 PM EDT
Astronomical Twilight 5:59 AM EDT 8:58 PM EDT
Moon 3:42 PM EDT 12:36 AM EDT
Length of Visible Light 12h 38m
Length of Day
11h 37m
Tomorrow will be 3m 18s shorter.
First Quarter, 59% of the Moon is Illuminated
Today
First Quarter
Oct 8
Full
Oct 15
Last Quarter
Oct 23
New
Oct 30
First Quarter

Today's Extremes

State Highs State Lows

Community

WunderPhotos

Upload Photos

1,758,245 photos uploaded!

WunderBlogs® & News

By Dr. Jeff Masters
Director of Meteorology, Weather Underground
By Kari Strenfel
Meteorologist, Weather Underground
By Christopher C. Burt
Weather Historian, Weather Underground
October 2, 2014
October 2, 2014
October 2, 2014

Nearby

Air Quality

  Air Quality AQ Index Pollutant
Yesterday Good
PM2.5
Current Good
PM2.5
Thursday Good
OZONE
Thursday Good
PM2.5
Friday Good
OZONE
Friday Good
PM2.5
Saturday Good
OZONE
Saturday Good
PM2.5

Snow Depth

Station Depth Elevation
No new snow has been reported.

Earthquake Activity

City Distance Mag. Time & Date
No recent earthquake activity has been reported nearby.
Minimum magnitude displayed is 2.5.

Coastal Water Temperatures

Place Temperature
S W Pier, MI 57.0 °F
Little Rapids, MI 55.9 °F
Rock Cut, MI 55.9 °F
West Neebish, MI 57.0 °F

Nearby Weather Stations